sensor_id;sensor_type;location;lat;lon;timestamp;P1;durP1;ratioP1;P2;durP2;ratioP2
9948;SDS011;5013;51.840;8.276;2023-03-21T00:00:57;12.57;;;8.37;;
9948;SDS011;5013;51.840;8.276;2023-03-21T00:03:24;17.23;;;7.73;;
9948;SDS011;5013;51.840;8.276;2023-03-21T00:05:50;21.27;;;8.77;;
9948;SDS011;5013;51.840;8.276;2023-03-21T00:08:18;15.70;;;8.50;;
9948;SDS011;5013;51.840;8.276;2023-03-21T00:10:44;16.43;;;7.60;;
9948;SDS011;5013;51.840;8.276;2023-03-21T00:13:11;15.53;;;8.63;;
9948;SDS011;5013;51.840;8.276;2023-03-21T00:15:37;14.60;;;9.53;;
9948;SDS011;5013;51.840;8.276;2023-03-21T00:18:14;17.30;;;8.63;;
9948;SDS011;5013;51.840;8.276;2023-03-21T00:20:40;16.03;;;8.30;;
9948;SDS011;5013;51.840;8.276;2023-03-21T00:23:06;21.97;;;9.57;;
9948;SDS011;5013;51.840;8.276;2023-03-21T00:25:31;14.40;;;8.93;;
9948;SDS011;5013;51.840;8.276;2023-03-21T00:27:57;19.43;;;9.83;;
9948;SDS011;5013;51.840;8.276;2023-03-21T00:30:23;16.97;;;9.53;;
9948;SDS011;5013;51.840;8.276;2023-03-21T00:32:49;20.80;;;11.03;;
9948;SDS011;5013;51.840;8.276;2023-03-21T00:35:14;15.90;;;9.13;;
9948;SDS011;5013;51.840;8.276;2023-03-21T00:37:40;17.80;;;10.20;;
9948;SDS011;5013;51.840;8.276;2023-03-21T00:40:07;18.33;;;9.80;;
9948;SDS011;5013;51.840;8.276;2023-03-21T00:42:34;25.03;;;10.47;;
9948;SDS011;5013;51.840;8.276;2023-03-21T00:45:01;21.87;;;12.03;;
9948;SDS011;5013;51.840;8.276;2023-03-21T00:47:27;22.57;;;12.73;;
9948;SDS011;5013;51.840;8.276;2023-03-21T00:49:53;23.27;;;13.33;;
9948;SDS011;5013;51.840;8.276;2023-03-21T00:52:18;21.20;;;12.67;;
9948;SDS011;5013;51.840;8.276;2023-03-21T00:54:44;17.40;;;11.87;;
9948;SDS011;5013;51.840;8.276;2023-03-21T00:57:10;22.60;;;13.20;;
9948;SDS011;5013;51.840;8.276;2023-03-21T00:59:35;21.13;;;12.10;;
9948;SDS011;5013;51.840;8.276;2023-03-21T01:02:01;23.57;;;14.13;;
9948;SDS011;5013;51.840;8.276;2023-03-21T01:04:31;25.47;;;15.27;;
9948;SDS011;5013;51.840;8.276;2023-03-21T01:06:58;20.90;;;13.33;;
9948;SDS011;5013;51.840;8.276;2023-03-21T01:09:24;21.20;;;12.00;;
9948;SDS011;5013;51.840;8.276;2023-03-21T01:11:50;19.90;;;11.50;;
9948;SDS011;5013;51.840;8.276;2023-03-21T01:14:17;20.40;;;13.33;;
9948;SDS011;5013;51.840;8.276;2023-03-21T01:16:44;23.50;;;12.60;;
9948;SDS011;5013;51.840;8.276;2023-03-21T01:19:12;22.63;;;12.63;;
9948;SDS011;5013;51.840;8.276;2023-03-21T01:21:40;16.90;;;11.27;;
9948;SDS011;5013;51.840;8.276;2023-03-21T01:24:07;23.03;;;13.20;;
9948;SDS011;5013;51.840;8.276;2023-03-21T01:26:32;20.40;;;12.67;;
9948;SDS011;5013;51.840;8.276;2023-03-21T01:28:58;17.47;;;12.73;;
9948;SDS011;5013;51.840;8.276;2023-03-21T01:31:24;21.07;;;12.13;;
9948;SDS011;5013;51.840;8.276;2023-03-21T01:33:50;21.27;;;12.17;;
9948;SDS011;5013;51.840;8.276;2023-03-21T01:36:16;17.93;;;11.47;;
9948;SDS011;5013;51.840;8.276;2023-03-21T01:38:45;19.33;;;11.87;;
9948;SDS011;5013;51.840;8.276;2023-03-21T01:41:31;18.03;;;11.60;;
9948;SDS011;5013;51.840;8.276;2023-03-21T01:43:59;19.73;;;12.10;;
9948;SDS011;5013;51.840;8.276;2023-03-21T01:49:02;22.73;;;11.63;;
9948;SDS011;5013;51.840;8.276;2023-03-21T01:51:46;28.27;;;13.53;;
9948;SDS011;5013;51.840;8.276;2023-03-21T01:54:16;25.00;;;12.90;;
9948;SDS011;5013;51.840;8.276;2023-03-21T01:56:49;27.67;;;13.00;;
9948;SDS011;5013;51.840;8.276;2023-03-21T02:01:45;26.10;;;13.57;;
9948;SDS011;5013;51.840;8.276;2023-03-21T02:04:12;21.43;;;12.73;;
9948;SDS011;5013;51.840;8.276;2023-03-21T02:09:14;23.83;;;12.20;;
9948;SDS011;5013;51.840;8.276;2023-03-21T02:11:43;16.70;;;10.83;;
9948;SDS011;5013;51.840;8.276;2023-03-21T02:14:11;20.53;;;11.20;;
9948;SDS011;5013;51.840;8.276;2023-03-21T02:16:49;23.03;;;11.80;;
9948;SDS011;5013;51.840;8.276;2023-03-21T02:27:19;18.50;;;10.57;;
9948;SDS011;5013;51.840;8.276;2023-03-21T02:32:30;21.20;;;10.70;;
9948;SDS011;5013;51.840;8.276;2023-03-21T02:35:33;23.23;;;11.37;;
9948;SDS011;5013;51.840;8.276;2023-03-21T02:38:08;25.93;;;11.77;;
9948;SDS011;5013;51.840;8.276;2023-03-21T02:49:26;23.00;;;10.20;;
9948;SDS011;5013;51.840;8.276;2023-03-21T02:51:57;21.27;;;10.93;;
9948;SDS011;5013;51.840;8.276;2023-03-21T02:54:24;23.80;;;10.70;;
9948;SDS011;5013;51.840;8.276;2023-03-21T02:56:52;18.63;;;10.40;;
9948;SDS011;5013;51.840;8.276;2023-03-21T02:59:21;24.30;;;11.07;;
9948;SDS011;5013;51.840;8.276;2023-03-21T03:01:53;17.13;;;10.97;;
9948;SDS011;5013;51.840;8.276;2023-03-21T03:04:21;19.40;;;10.60;;
9948;SDS011;5013;51.840;8.276;2023-03-21T03:15:04;20.17;;;10.80;;
9948;SDS011;5013;51.840;8.276;2023-03-21T03:23:00;24.20;;;10.93;;
9948;SDS011;5013;51.840;8.276;2023-03-21T03:25:43;18.90;;;11.10;;
9948;SDS011;5013;51.840;8.276;2023-03-21T03:28:14;20.27;;;10.47;;
9948;SDS011;5013;51.840;8.276;2023-03-21T03:30:49;24.63;;;11.10;;
9948;SDS011;5013;51.840;8.276;2023-03-21T03:33:18;20.37;;;10.90;;
9948;SDS011;5013;51.840;8.276;2023-03-21T03:35:47;19.97;;;10.23;;
9948;SDS011;5013;51.840;8.276;2023-03-21T03:38:16;20.43;;;11.20;;
9948;SDS011;5013;51.840;8.276;2023-03-21T03:40:47;22.97;;;10.77;;
9948;SDS011;5013;51.840;8.276;2023-03-21T03:43:17;17.50;;;10.90;;
9948;SDS011;5013;51.840;8.276;2023-03-21T03:45:49;21.27;;;12.63;;
9948;SDS011;5013;51.840;8.276;2023-03-21T03:50:54;16.80;;;10.63;;
9948;SDS011;5013;51.840;8.276;2023-03-21T03:53:28;22.70;;;12.37;;
9948;SDS011;5013;51.840;8.276;2023-03-21T03:56:09;25.50;;;12.43;;
9948;SDS011;5013;51.840;8.276;2023-03-21T03:58:36;21.83;;;12.17;;
9948;SDS011;5013;51.840;8.276;2023-03-21T04:01:06;21.10;;;11.90;;
9948;SDS011;5013;51.840;8.276;2023-03-21T04:03:33;17.60;;;11.27;;
9948;SDS011;5013;51.840;8.276;2023-03-21T04:06:01;21.67;;;11.63;;
9948;SDS011;5013;51.840;8.276;2023-03-21T04:08:28;21.47;;;11.93;;
9948;SDS011;5013;51.840;8.276;2023-03-21T04:10:54;18.93;;;11.17;;
9948;SDS011;5013;51.840;8.276;2023-03-21T04:13:20;21.23;;;12.07;;
9948;SDS011;5013;51.840;8.276;2023-03-21T04:15:46;20.27;;;11.83;;
9948;SDS011;5013;51.840;8.276;2023-03-21T04:18:11;23.17;;;12.27;;
9948;SDS011;5013;51.840;8.276;2023-03-21T04:20:37;20.27;;;11.77;;
9948;SDS011;5013;51.840;8.276;2023-03-21T04:23:03;20.03;;;11.47;;
9948;SDS011;5013;51.840;8.276;2023-03-21T04:25:32;17.10;;;12.40;;
9948;SDS011;5013;51.840;8.276;2023-03-21T04:27:58;25.50;;;12.10;;
9948;SDS011;5013;51.840;8.276;2023-03-21T04:30:24;21.37;;;10.33;;
9948;SDS011;5013;51.840;8.276;2023-03-21T04:32:50;20.13;;;11.23;;
9948;SDS011;5013;51.840;8.276;2023-03-21T04:35:20;21.57;;;11.43;;
9948;SDS011;5013;51.840;8.276;2023-03-21T04:37:47;19.40;;;11.43;;
9948;SDS011;5013;51.840;8.276;2023-03-21T04:40:13;20.23;;;12.00;;
9948;SDS011;5013;51.840;8.276;2023-03-21T04:42:42;21.97;;;11.00;;
9948;SDS011;5013;51.840;8.276;2023-03-21T04:45:08;19.93;;;11.70;;
9948;SDS011;5013;51.840;8.276;2023-03-21T04:47:34;20.63;;;11.97;;
9948;SDS011;5013;51.840;8.276;2023-03-21T04:50:00;26.27;;;13.43;;
9948;SDS011;5013;51.840;8.276;2023-03-21T04:52:26;24.33;;;12.73;;
9948;SDS011;5013;51.840;8.276;2023-03-21T04:54:51;23.13;;;12.50;;
9948;SDS011;5013;51.840;8.276;2023-03-21T04:57:17;20.43;;;12.03;;
9948;SDS011;5013;51.840;8.276;2023-03-21T04:59:43;26.17;;;11.83;;
9948;SDS011;5013;51.840;8.276;2023-03-21T05:02:09;25.03;;;12.77;;
9948;SDS011;5013;51.840;8.276;2023-03-21T05:04:36;21.23;;;12.20;;
9948;SDS011;5013;51.840;8.276;2023-03-21T05:07:02;23.60;;;11.70;;
9948;SDS011;5013;51.840;8.276;2023-03-21T05:12:03;22.80;;;13.40;;
9948;SDS011;5013;51.840;8.276;2023-03-21T05:14:29;23.53;;;13.03;;
9948;SDS011;5013;51.840;8.276;2023-03-21T05:16:55;23.03;;;12.53;;
9948;SDS011;5013;51.840;8.276;2023-03-21T05:19:25;23.67;;;12.63;;
9948;SDS011;5013;51.840;8.276;2023-03-21T05:22:02;20.17;;;11.80;;
9948;SDS011;5013;51.840;8.276;2023-03-21T05:24:30;21.53;;;12.63;;
9948;SDS011;5013;51.840;8.276;2023-03-21T05:26:56;22.27;;;13.07;;
9948;SDS011;5013;51.840;8.276;2023-03-21T05:29:26;22.27;;;13.50;;
9948;SDS011;5013;51.840;8.276;2023-03-21T05:31:56;19.43;;;13.17;;
9948;SDS011;5013;51.840;8.276;2023-03-21T05:34:23;22.47;;;12.97;;
9948;SDS011;5013;51.840;8.276;2023-03-21T05:36:50;23.23;;;12.80;;
9948;SDS011;5013;51.840;8.276;2023-03-21T05:39:16;26.57;;;13.63;;
9948;SDS011;5013;51.840;8.276;2023-03-21T05:41:42;18.40;;;12.83;;
9948;SDS011;5013;51.840;8.276;2023-03-21T05:44:08;22.13;;;13.53;;
9948;SDS011;5013;51.840;8.276;2023-03-21T05:46:34;33.10;;;15.43;;
9948;SDS011;5013;51.840;8.276;2023-03-21T05:48:59;24.43;;;14.37;;
9948;SDS011;5013;51.840;8.276;2023-03-21T05:51:25;18.37;;;11.93;;
9948;SDS011;5013;51.840;8.276;2023-03-21T05:53:51;19.70;;;12.67;;
9948;SDS011;5013;51.840;8.276;2023-03-21T05:56:16;24.30;;;14.20;;
9948;SDS011;5013;51.840;8.276;2023-03-21T05:58:42;24.50;;;13.37;;
9948;SDS011;5013;51.840;8.276;2023-03-21T06:01:08;25.33;;;13.20;;
9948;SDS011;5013;51.840;8.276;2023-03-21T06:03:34;20.37;;;12.80;;
9948;SDS011;5013;51.840;8.276;2023-03-21T06:06:00;26.73;;;14.47;;
9948;SDS011;5013;51.840;8.276;2023-03-21T06:08:27;24.13;;;14.10;;
9948;SDS011;5013;51.840;8.276;2023-03-21T06:10:53;27.93;;;13.77;;
9948;SDS011;5013;51.840;8.276;2023-03-21T06:13:19;26.03;;;14.77;;
9948;SDS011;5013;51.840;8.276;2023-03-21T06:15:45;24.63;;;13.93;;
9948;SDS011;5013;51.840;8.276;2023-03-21T06:18:11;25.83;;;13.60;;
9948;SDS011;5013;51.840;8.276;2023-03-21T06:20:37;20.10;;;13.53;;
9948;SDS011;5013;51.840;8.276;2023-03-21T06:23:03;23.90;;;13.97;;
9948;SDS011;5013;51.840;8.276;2023-03-21T06:25:29;22.87;;;13.60;;
9948;SDS011;5013;51.840;8.276;2023-03-21T06:27:55;22.07;;;14.07;;
9948;SDS011;5013;51.840;8.276;2023-03-21T06:30:20;21.40;;;13.77;;
9948;SDS011;5013;51.840;8.276;2023-03-21T06:32:46;24.57;;;14.43;;
9948;SDS011;5013;51.840;8.276;2023-03-21T06:35:12;27.13;;;14.77;;
9948;SDS011;5013;51.840;8.276;2023-03-21T06:37:37;27.63;;;14.93;;
9948;SDS011;5013;51.840;8.276;2023-03-21T06:40:03;25.13;;;14.17;;
9948;SDS011;5013;51.840;8.276;2023-03-21T06:42:30;32.00;;;15.30;;
9948;SDS011;5013;51.840;8.276;2023-03-21T06:44:56;27.87;;;15.30;;
9948;SDS011;5013;51.840;8.276;2023-03-21T06:47:22;22.77;;;14.23;;
9948;SDS011;5013;51.840;8.276;2023-03-21T06:49:48;22.43;;;14.17;;
9948;SDS011;5013;51.840;8.276;2023-03-21T06:52:13;20.53;;;14.10;;
9948;SDS011;5013;51.840;8.276;2023-03-21T06:54:39;34.87;;;16.87;;
9948;SDS011;5013;51.840;8.276;2023-03-21T06:57:05;24.53;;;14.90;;
9948;SDS011;5013;51.840;8.276;2023-03-21T06:59:30;26.27;;;14.40;;
9948;SDS011;5013;51.840;8.276;2023-03-21T07:01:56;27.17;;;14.87;;
9948;SDS011;5013;51.840;8.276;2023-03-21T07:04:22;25.50;;;14.60;;
9948;SDS011;5013;51.840;8.276;2023-03-21T07:06:48;27.20;;;14.57;;
9948;SDS011;5013;51.840;8.276;2023-03-21T07:09:13;21.17;;;13.27;;
9948;SDS011;5013;51.840;8.276;2023-03-21T07:11:41;27.03;;;14.43;;
9948;SDS011;5013;51.840;8.276;2023-03-21T07:14:07;28.77;;;14.30;;
9948;SDS011;5013;51.840;8.276;2023-03-21T07:16:33;24.83;;;15.47;;
9948;SDS011;5013;51.840;8.276;2023-03-21T07:18:58;27.93;;;14.77;;
9948;SDS011;5013;51.840;8.276;2023-03-21T07:21:24;31.80;;;15.53;;
9948;SDS011;5013;51.840;8.276;2023-03-21T07:23:49;24.27;;;15.03;;
9948;SDS011;5013;51.840;8.276;2023-03-21T07:26:15;27.73;;;15.53;;
9948;SDS011;5013;51.840;8.276;2023-03-21T07:28:42;29.13;;;15.60;;
9948;SDS011;5013;51.840;8.276;2023-03-21T07:31:11;24.10;;;14.00;;
9948;SDS011;5013;51.840;8.276;2023-03-21T07:33:39;24.03;;;14.10;;
9948;SDS011;5013;51.840;8.276;2023-03-21T07:36:07;34.50;;;15.43;;
9948;SDS011;5013;51.840;8.276;2023-03-21T07:38:36;25.53;;;13.77;;
9948;SDS011;5013;51.840;8.276;2023-03-21T07:41:02;21.00;;;13.60;;
9948;SDS011;5013;51.840;8.276;2023-03-21T07:43:27;30.17;;;14.80;;
9948;SDS011;5013;51.840;8.276;2023-03-21T07:45:56;30.90;;;13.73;;
9948;SDS011;5013;51.840;8.276;2023-03-21T07:48:22;25.50;;;14.50;;
9948;SDS011;5013;51.840;8.276;2023-03-21T07:50:48;20.70;;;13.07;;
9948;SDS011;5013;51.840;8.276;2023-03-21T07:53:14;26.10;;;12.97;;
9948;SDS011;5013;51.840;8.276;2023-03-21T07:55:39;25.43;;;14.77;;
9948;SDS011;5013;51.840;8.276;2023-03-21T07:58:05;22.47;;;13.67;;
9948;SDS011;5013;51.840;8.276;2023-03-21T08:00:31;26.80;;;13.47;;
9948;SDS011;5013;51.840;8.276;2023-03-21T08:02:57;24.67;;;14.13;;
9948;SDS011;5013;51.840;8.276;2023-03-21T08:05:23;26.17;;;14.37;;
9948;SDS011;5013;51.840;8.276;2023-03-21T08:07:51;23.27;;;14.47;;
9948;SDS011;5013;51.840;8.276;2023-03-21T08:10:17;29.37;;;15.77;;
9948;SDS011;5013;51.840;8.276;2023-03-21T08:12:43;22.53;;;14.47;;
9948;SDS011;5013;51.840;8.276;2023-03-21T08:15:10;29.60;;;14.60;;
9948;SDS011;5013;51.840;8.276;2023-03-21T08:17:37;29.07;;;14.97;;
9948;SDS011;5013;51.840;8.276;2023-03-21T08:20:07;29.40;;;15.93;;
9948;SDS011;5013;51.840;8.276;2023-03-21T08:22:34;36.30;;;16.07;;
9948;SDS011;5013;51.840;8.276;2023-03-21T08:25:01;33.73;;;16.60;;
9948;SDS011;5013;51.840;8.276;2023-03-21T08:27:32;37.40;;;16.97;;
9948;SDS011;5013;51.840;8.276;2023-03-21T08:29:58;34.80;;;17.10;;
9948;SDS011;5013;51.840;8.276;2023-03-21T08:32:24;31.93;;;17.13;;
9948;SDS011;5013;51.840;8.276;2023-03-21T08:34:54;32.47;;;16.77;;
9948;SDS011;5013;51.840;8.276;2023-03-21T08:37:21;35.33;;;17.17;;
9948;SDS011;5013;51.840;8.276;2023-03-21T08:39:47;29.93;;;15.90;;
9948;SDS011;5013;51.840;8.276;2023-03-21T08:42:13;31.87;;;15.13;;
9948;SDS011;5013;51.840;8.276;2023-03-21T08:44:38;37.50;;;17.73;;
9948;SDS011;5013;51.840;8.276;2023-03-21T08:47:05;30.67;;;17.80;;
9948;SDS011;5013;51.840;8.276;2023-03-21T08:49:31;51.73;;;19.27;;
9948;SDS011;5013;51.840;8.276;2023-03-21T08:51:56;42.00;;;18.73;;
9948;SDS011;5013;51.840;8.276;2023-03-21T08:54:22;52.90;;;19.43;;
9948;SDS011;5013;51.840;8.276;2023-03-21T08:56:47;31.77;;;17.33;;
9948;SDS011;5013;51.840;8.276;2023-03-21T08:59:13;34.73;;;17.43;;
9948;SDS011;5013;51.840;8.276;2023-03-21T09:01:39;36.70;;;17.07;;
9948;SDS011;5013;51.840;8.276;2023-03-21T09:04:05;31.67;;;17.47;;
9948;SDS011;5013;51.840;8.276;2023-03-21T09:06:34;34.17;;;16.77;;
9948;SDS011;5013;51.840;8.276;2023-03-21T09:09:01;28.50;;;15.67;;
9948;SDS011;5013;51.840;8.276;2023-03-21T09:11:27;26.87;;;15.37;;
9948;SDS011;5013;51.840;8.276;2023-03-21T09:13:52;33.50;;;15.63;;
9948;SDS011;5013;51.840;8.276;2023-03-21T09:16:18;30.13;;;14.53;;
9948;SDS011;5013;51.840;8.276;2023-03-21T09:18:44;28.83;;;16.43;;
9948;SDS011;5013;51.840;8.276;2023-03-21T09:21:13;25.30;;;15.03;;
9948;SDS011;5013;51.840;8.276;2023-03-21T09:23:40;25.23;;;13.67;;
9948;SDS011;5013;51.840;8.276;2023-03-21T09:26:07;28.80;;;14.03;;
9948;SDS011;5013;51.840;8.276;2023-03-21T09:28:33;27.00;;;14.33;;
9948;SDS011;5013;51.840;8.276;2023-03-21T09:31:01;29.57;;;13.97;;
9948;SDS011;5013;51.840;8.276;2023-03-21T09:33:28;35.63;;;14.63;;
9948;SDS011;5013;51.840;8.276;2023-03-21T09:35:54;31.50;;;13.40;;
9948;SDS011;5013;51.840;8.276;2023-03-21T09:38:21;28.00;;;13.47;;
9948;SDS011;5013;51.840;8.276;2023-03-21T09:46:42;27.40;;;14.10;;
9948;SDS011;5013;51.840;8.276;2023-03-21T09:49:16;28.27;;;12.50;;
9948;SDS011;5013;51.840;8.276;2023-03-21T09:51:49;30.13;;;13.53;;
9948;SDS011;5013;51.840;8.276;2023-03-21T09:56:51;23.10;;;12.63;;
9948;SDS011;5013;51.840;8.276;2023-03-21T09:59:41;23.23;;;13.03;;
9948;SDS011;5013;51.840;8.276;2023-03-21T10:02:18;27.23;;;13.13;;
9948;SDS011;5013;51.840;8.276;2023-03-21T10:05:00;24.10;;;12.50;;
9948;SDS011;5013;51.840;8.276;2023-03-21T10:07:33;20.43;;;11.03;;
9948;SDS011;5013;51.840;8.276;2023-03-21T10:10:05;19.33;;;11.43;;
9948;SDS011;5013;51.840;8.276;2023-03-21T10:12:38;26.27;;;13.03;;
9948;SDS011;5013;51.840;8.276;2023-03-21T10:15:04;27.00;;;13.20;;
9948;SDS011;5013;51.840;8.276;2023-03-21T10:17:39;22.50;;;11.97;;
9948;SDS011;5013;51.840;8.276;2023-03-21T10:22:37;32.93;;;13.73;;
9948;SDS011;5013;51.840;8.276;2023-03-21T10:25:03;24.13;;;12.20;;
9948;SDS011;5013;51.840;8.276;2023-03-21T10:27:30;31.33;;;13.67;;
9948;SDS011;5013;51.840;8.276;2023-03-21T10:29:57;24.97;;;11.87;;
9948;SDS011;5013;51.840;8.276;2023-03-21T10:32:25;27.73;;;13.97;;
9948;SDS011;5013;51.840;8.276;2023-03-21T10:34:54;20.13;;;11.87;;
9948;SDS011;5013;51.840;8.276;2023-03-21T10:37:22;23.27;;;13.03;;
9948;SDS011;5013;51.840;8.276;2023-03-21T10:39:50;24.87;;;13.63;;
9948;SDS011;5013;51.840;8.276;2023-03-21T10:44:51;25.30;;;13.00;;
9948;SDS011;5013;51.840;8.276;2023-03-21T10:47:23;27.60;;;12.70;;
9948;SDS011;5013;51.840;8.276;2023-03-21T10:49:50;20.67;;;11.90;;
9948;SDS011;5013;51.840;8.276;2023-03-21T10:52:20;28.83;;;13.87;;
9948;SDS011;5013;51.840;8.276;2023-03-21T10:54:47;28.83;;;13.73;;
9948;SDS011;5013;51.840;8.276;2023-03-21T10:59:50;27.33;;;13.30;;
9948;SDS011;5013;51.840;8.276;2023-03-21T11:05:05;22.23;;;11.80;;
9948;SDS011;5013;51.840;8.276;2023-03-21T11:07:41;28.37;;;13.53;;
9948;SDS011;5013;51.840;8.276;2023-03-21T11:11:08;27.93;;;13.20;;
9948;SDS011;5013;51.840;8.276;2023-03-21T11:13:26;28.63;;;13.40;;
9948;SDS011;5013;51.840;8.276;2023-03-21T11:16:09;27.83;;;14.23;;
9948;SDS011;5013;51.840;8.276;2023-03-21T11:18:43;21.87;;;14.00;;
9948;SDS011;5013;51.840;8.276;2023-03-21T11:21:13;29.73;;;13.87;;
9948;SDS011;5013;51.840;8.276;2023-03-21T11:23:42;28.73;;;14.40;;
9948;SDS011;5013;51.840;8.276;2023-03-21T11:26:18;20.03;;;11.77;;
9948;SDS011;5013;51.840;8.276;2023-03-21T11:28:56;21.60;;;12.10;;
9948;SDS011;5013;51.840;8.276;2023-03-21T11:31:23;24.80;;;13.33;;
9948;SDS011;5013;51.840;8.276;2023-03-21T11:34:04;22.70;;;12.60;;
9948;SDS011;5013;51.840;8.276;2023-03-21T11:36:33;28.93;;;13.33;;
9948;SDS011;5013;51.840;8.276;2023-03-21T11:41:47;26.90;;;13.43;;
9948;SDS011;5013;51.840;8.276;2023-03-21T11:44:29;24.17;;;13.77;;
9948;SDS011;5013;51.840;8.276;2023-03-21T11:46:57;25.03;;;13.20;;
9948;SDS011;5013;51.840;8.276;2023-03-21T11:49:23;20.93;;;11.23;;
9948;SDS011;5013;51.840;8.276;2023-03-21T11:54:31;24.30;;;11.17;;
9948;SDS011;5013;51.840;8.276;2023-03-21T12:05:20;19.80;;;10.80;;
9948;SDS011;5013;51.840;8.276;2023-03-21T12:08:08;22.90;;;12.37;;
9948;SDS011;5013;51.840;8.276;2023-03-21T12:21:23;20.57;;;10.40;;
9948;SDS011;5013;51.840;8.276;2023-03-21T12:39:34;16.90;;;7.37;;
9948;SDS011;5013;51.840;8.276;2023-03-21T12:44:57;17.13;;;7.83;;
9948;SDS011;5013;51.840;8.276;2023-03-21T12:50:41;20.30;;;7.83;;
9948;SDS011;5013;51.840;8.276;2023-03-21T12:53:28;14.20;;;8.07;;
9948;SDS011;5013;51.840;8.276;2023-03-21T13:02:25;10.60;;;7.73;;
9948;SDS011;5013;51.840;8.276;2023-03-21T13:07:55;11.10;;;6.17;;
9948;SDS011;5013;51.840;8.276;2023-03-21T13:10:43;17.50;;;7.00;;
9948;SDS011;5013;51.840;8.276;2023-03-21T13:13:30;8.77;;;6.07;;
9948;SDS011;5013;51.840;8.276;2023-03-21T13:16:23;12.27;;;6.53;;
9948;SDS011;5013;51.840;8.276;2023-03-21T13:19:13;12.23;;;6.87;;
9948;SDS011;5013;51.840;8.276;2023-03-21T13:24:46;13.33;;;6.27;;
9948;SDS011;5013;51.840;8.276;2023-03-21T13:32:35;15.77;;;7.00;;
9948;SDS011;5013;51.840;8.276;2023-03-21T13:40:43;13.87;;;5.23;;
9948;SDS011;5013;51.840;8.276;2023-03-21T13:59:16;6.13;;;4.53;;
9948;SDS011;5013;51.840;8.276;2023-03-21T14:04:28;7.20;;;4.50;;
9948;SDS011;5013;51.840;8.276;2023-03-21T14:07:15;6.00;;;3.60;;
9948;SDS011;5013;51.840;8.276;2023-03-21T14:09:48;5.27;;;3.83;;
9948;SDS011;5013;51.840;8.276;2023-03-21T14:12:17;6.13;;;3.63;;
9948;SDS011;5013;51.840;8.276;2023-03-21T14:14:51;5.80;;;3.77;;
9948;SDS011;5013;51.840;8.276;2023-03-21T14:17:23;7.40;;;3.37;;
9948;SDS011;5013;51.840;8.276;2023-03-21T14:23:13;5.80;;;3.47;;
9948;SDS011;5013;51.840;8.276;2023-03-21T14:25:40;6.50;;;3.63;;
9948;SDS011;5013;51.840;8.276;2023-03-21T14:28:11;4.57;;;3.50;;
9948;SDS011;5013;51.840;8.276;2023-03-21T14:30:43;5.00;;;3.37;;
9948;SDS011;5013;51.840;8.276;2023-03-21T14:36:02;7.10;;;4.00;;
9948;SDS011;5013;51.840;8.276;2023-03-21T14:38:36;7.30;;;3.90;;
9948;SDS011;5013;51.840;8.276;2023-03-21T14:41:04;4.13;;;3.73;;
9948;SDS011;5013;51.840;8.276;2023-03-21T14:43:30;9.27;;;4.20;;
9948;SDS011;5013;51.840;8.276;2023-03-21T14:45:58;7.77;;;4.10;;
9948;SDS011;5013;51.840;8.276;2023-03-21T14:48:31;6.50;;;3.47;;
9948;SDS011;5013;51.840;8.276;2023-03-21T14:51:04;5.63;;;3.53;;
9948;SDS011;5013;51.840;8.276;2023-03-21T14:53:38;8.27;;;3.80;;
9948;SDS011;5013;51.840;8.276;2023-03-21T14:58:38;5.50;;;3.47;;
9948;SDS011;5013;51.840;8.276;2023-03-21T15:01:06;9.77;;;4.03;;
9948;SDS011;5013;51.840;8.276;2023-03-21T15:03:41;6.23;;;3.43;;
9948;SDS011;5013;51.840;8.276;2023-03-21T15:06:10;7.07;;;3.87;;
9948;SDS011;5013;51.840;8.276;2023-03-21T15:08:38;5.67;;;3.47;;
9948;SDS011;5013;51.840;8.276;2023-03-21T15:11:05;5.50;;;3.30;;
9948;SDS011;5013;51.840;8.276;2023-03-21T15:13:47;6.33;;;3.53;;
9948;SDS011;5013;51.840;8.276;2023-03-21T15:16:16;5.77;;;3.57;;
9948;SDS011;5013;51.840;8.276;2023-03-21T15:18:42;6.33;;;3.70;;
9948;SDS011;5013;51.840;8.276;2023-03-21T15:21:11;6.43;;;3.17;;
9948;SDS011;5013;51.840;8.276;2023-03-21T15:23:47;5.53;;;3.73;;
9948;SDS011;5013;51.840;8.276;2023-03-21T15:26:18;3.30;;;2.90;;
9948;SDS011;5013;51.840;8.276;2023-03-21T15:28:47;3.53;;;2.80;;
9948;SDS011;5013;51.840;8.276;2023-03-21T15:31:16;3.87;;;3.20;;
9948;SDS011;5013;51.840;8.276;2023-03-21T15:33:45;4.83;;;3.37;;
9948;SDS011;5013;51.840;8.276;2023-03-21T15:36:22;4.63;;;3.13;;
9948;SDS011;5013;51.840;8.276;2023-03-21T15:38:51;7.07;;;3.20;;
9948;SDS011;5013;51.840;8.276;2023-03-21T15:43:45;8.70;;;3.37;;
9948;SDS011;5013;51.840;8.276;2023-03-21T15:46:12;3.83;;;2.90;;
9948;SDS011;5013;51.840;8.276;2023-03-21T15:48:42;5.07;;;3.10;;
9948;SDS011;5013;51.840;8.276;2023-03-21T15:51:21;7.00;;;3.20;;
9948;SDS011;5013;51.840;8.276;2023-03-21T15:53:48;5.07;;;3.27;;
9948;SDS011;5013;51.840;8.276;2023-03-21T15:56:18;3.33;;;3.03;;
9948;SDS011;5013;51.840;8.276;2023-03-21T15:58:47;3.47;;;3.20;;
9948;SDS011;5013;51.840;8.276;2023-03-21T16:01:17;3.30;;;3.00;;
9948;SDS011;5013;51.840;8.276;2023-03-21T16:03:45;8.60;;;3.03;;
9948;SDS011;5013;51.840;8.276;2023-03-21T16:09:25;4.13;;;3.20;;
9948;SDS011;5013;51.840;8.276;2023-03-21T16:11:52;4.07;;;3.33;;
9948;SDS011;5013;51.840;8.276;2023-03-21T16:14:20;3.10;;;2.90;;
9948;SDS011;5013;51.840;8.276;2023-03-21T16:16:46;3.90;;;3.37;;
9948;SDS011;5013;51.840;8.276;2023-03-21T16:19:13;4.73;;;3.60;;
9948;SDS011;5013;51.840;8.276;2023-03-21T16:21:39;4.03;;;3.13;;
9948;SDS011;5013;51.840;8.276;2023-03-21T16:24:05;4.43;;;3.40;;
9948;SDS011;5013;51.840;8.276;2023-03-21T16:26:34;3.30;;;3.00;;
9948;SDS011;5013;51.840;8.276;2023-03-21T16:29:02;6.30;;;3.37;;
9948;SDS011;5013;51.840;8.276;2023-03-21T16:31:30;6.33;;;3.37;;
9948;SDS011;5013;51.840;8.276;2023-03-21T16:33:57;4.37;;;3.73;;
9948;SDS011;5013;51.840;8.276;2023-03-21T16:36:24;3.90;;;3.60;;
9948;SDS011;5013;51.840;8.276;2023-03-21T16:38:54;4.80;;;3.53;;
9948;SDS011;5013;51.840;8.276;2023-03-21T16:41:20;3.90;;;3.47;;
9948;SDS011;5013;51.840;8.276;2023-03-21T16:43:47;5.50;;;3.73;;
9948;SDS011;5013;51.840;8.276;2023-03-21T16:46:15;6.30;;;3.60;;
9948;SDS011;5013;51.840;8.276;2023-03-21T16:48:46;3.27;;;2.97;;
9948;SDS011;5013;51.840;8.276;2023-03-21T16:51:21;6.60;;;3.40;;
9948;SDS011;5013;51.840;8.276;2023-03-21T16:53:54;4.83;;;3.37;;
9948;SDS011;5013;51.840;8.276;2023-03-21T16:56:22;4.80;;;3.77;;
9948;SDS011;5013;51.840;8.276;2023-03-21T16:58:53;3.97;;;3.00;;
9948;SDS011;5013;51.840;8.276;2023-03-21T17:01:20;6.37;;;3.17;;
9948;SDS011;5013;51.840;8.276;2023-03-21T17:03:50;4.43;;;3.40;;
9948;SDS011;5013;51.840;8.276;2023-03-21T17:06:17;4.83;;;3.47;;
9948;SDS011;5013;51.840;8.276;2023-03-21T17:08:48;5.53;;;3.47;;
9948;SDS011;5013;51.840;8.276;2023-03-21T17:11:15;3.50;;;3.00;;
9948;SDS011;5013;51.840;8.276;2023-03-21T17:13:44;7.10;;;3.60;;
9948;SDS011;5013;51.840;8.276;2023-03-21T17:16:11;5.17;;;3.30;;
9948;SDS011;5013;51.840;8.276;2023-03-21T17:18:38;5.47;;;3.23;;
9948;SDS011;5013;51.840;8.276;2023-03-21T17:21:21;5.13;;;3.03;;
9948;SDS011;5013;51.840;8.276;2023-03-21T17:23:49;6.30;;;3.60;;
9948;SDS011;5013;51.840;8.276;2023-03-21T17:26:20;4.67;;;3.47;;
9948;SDS011;5013;51.840;8.276;2023-03-21T17:28:47;5.70;;;3.13;;
9948;SDS011;5013;51.840;8.276;2023-03-21T17:31:13;3.87;;;3.30;;
9948;SDS011;5013;51.840;8.276;2023-03-21T17:33:41;3.63;;;3.33;;
9948;SDS011;5013;51.840;8.276;2023-03-21T17:36:27;9.73;;;3.60;;
9948;SDS011;5013;51.840;8.276;2023-03-21T17:38:58;5.60;;;3.80;;
9948;SDS011;5013;51.840;8.276;2023-03-21T17:41:24;3.70;;;3.03;;
9948;SDS011;5013;51.840;8.276;2023-03-21T17:43:50;6.63;;;3.77;;
9948;SDS011;5013;51.840;8.276;2023-03-21T17:46:17;4.87;;;3.17;;
9948;SDS011;5013;51.840;8.276;2023-03-21T17:48:46;7.03;;;5.27;;
9948;SDS011;5013;51.840;8.276;2023-03-21T17:51:11;8.80;;;4.30;;
9948;SDS011;5013;51.840;8.276;2023-03-21T17:53:39;6.57;;;5.10;;